createdAt,value
2022-08-21T00:00:55.350Z,19.31
2022-08-21T00:03:23.427Z,19.27
2022-08-21T00:05:52.725Z,19.20
2022-08-21T00:08:21.299Z,19.02
2022-08-21T00:10:50.303Z,19.17
2022-08-21T00:13:19.075Z,19.22
2022-08-21T00:15:49.017Z,19.17
2022-08-21T00:18:17.831Z,19.13
2022-08-21T00:20:47.256Z,19.01
2022-08-21T00:23:15.833Z,19.03
2022-08-21T00:25:44.563Z,18.93
2022-08-21T00:28:12.874Z,19.03
2022-08-21T00:30:41.850Z,19.08
2022-08-21T00:33:12.049Z,18.95
2022-08-21T00:35:42.818Z,19.22
2022-08-21T00:38:12.162Z,19.23
2022-08-21T00:40:48.787Z,19.25
2022-08-21T00:43:19.389Z,19.29
2022-08-21T00:45:47.224Z,19.13
2022-08-21T00:48:16.912Z,19.22
2022-08-21T00:50:50.842Z,19.23
2022-08-21T00:53:19.968Z,19.30
2022-08-21T00:55:48.717Z,19.16
2022-08-21T00:58:18.685Z,19.25
2022-08-21T01:00:49.026Z,19.16
2022-08-21T01:03:23.844Z,19.17
2022-08-21T01:05:52.461Z,19.05
2022-08-21T01:08:21.854Z,18.97
2022-08-21T01:10:54.497Z,18.53
2022-08-21T01:13:25.467Z,18.13
2022-08-21T01:15:56.021Z,18.03
2022-08-21T01:18:26.624Z,18.38
2022-08-21T01:21:06.524Z,18.37
2022-08-21T01:23:36.326Z,18.31
2022-08-21T01:26:07.689Z,18.27
2022-08-21T01:28:40.917Z,18.36
2022-08-21T01:31:10.465Z,18.55
2022-08-21T01:33:38.959Z,18.68
2022-08-21T01:36:08.934Z,18.75
2022-08-21T01:38:37.113Z,18.59
2022-08-21T01:41:04.936Z,18.35
2022-08-21T01:43:39.249Z,18.49
2022-08-21T01:46:08.720Z,18.59
2022-08-21T01:48:37.240Z,18.71
2022-08-21T01:51:05.816Z,18.49
2022-08-21T01:53:37.046Z,18.19
2022-08-21T01:56:12.439Z,18.11
2022-08-21T01:58:40.820Z,18.18
2022-08-21T02:01:08.976Z,18.26
2022-08-21T02:03:37.205Z,18.17
2022-08-21T02:06:05.337Z,18.07
2022-08-21T02:08:36.107Z,17.90
2022-08-21T02:11:04.082Z,17.80
2022-08-21T02:13:32.236Z,18.09
2022-08-21T02:15:59.945Z,18.25
2022-08-21T02:18:28.043Z,18.15
2022-08-21T02:20:56.375Z,18.37
2022-08-21T02:23:26.580Z,18.35
2022-08-21T02:25:56.226Z,18.33
2022-08-21T02:28:24.362Z,18.06
2022-08-21T02:30:53.629Z,18.17
2022-08-21T02:33:21.975Z,18.36
2022-08-21T02:35:50.930Z,18.56
2022-08-21T02:38:22.240Z,18.52
2022-08-21T02:40:51.885Z,18.57
2022-08-21T02:43:22.527Z,18.49
2022-08-21T02:45:51.125Z,18.60
2022-08-21T02:48:20.952Z,18.67
2022-08-21T02:50:50.609Z,18.77
2022-08-21T02:53:19.187Z,18.56
2022-08-21T02:55:48.345Z,18.33
2022-08-21T02:58:17.761Z,18.37
2022-08-21T03:00:47.213Z,18.42
2022-08-21T03:03:15.762Z,18.31
2022-08-21T03:05:44.587Z,18.24
2022-08-21T03:08:15.387Z,18.23
2022-08-21T03:10:47.263Z,18.03
2022-08-21T03:13:16.201Z,17.99
2022-08-21T03:15:44.499Z,18.31
2022-08-21T03:18:14.612Z,18.36
2022-08-21T03:20:46.017Z,18.14
2022-08-21T03:23:18.481Z,18.20
2022-08-21T03:25:48.485Z,18.13
2022-08-21T03:28:18.575Z,17.94
2022-08-21T03:30:48.108Z,18.14
2022-08-21T03:33:20.571Z,18.39
2022-08-21T03:36:05.758Z,18.42
2022-08-21T03:38:35.907Z,18.46
2022-08-21T03:41:05.011Z,18.37
2022-08-21T03:43:33.791Z,18.28
2022-08-21T03:46:04.680Z,17.99
2022-08-21T03:48:34.277Z,18.13
2022-08-21T03:51:02.560Z,17.99
2022-08-21T03:53:31.116Z,17.88
2022-08-21T03:55:59.375Z,17.80
2022-08-21T03:58:29.217Z,17.90
2022-08-21T04:00:59.465Z,17.89
2022-08-21T04:03:28.379Z,17.90
2022-08-21T04:05:58.160Z,17.84
2022-08-21T04:08:26.060Z,17.72
2022-08-21T04:10:57.881Z,17.80
2022-08-21T04:13:27.137Z,17.74
2022-08-21T04:15:55.243Z,17.86
2022-08-21T04:18:22.988Z,17.93
2022-08-21T04:20:53.650Z,17.86
2022-08-21T04:23:24.694Z,17.90
2022-08-21T04:25:54.189Z,17.89
2022-08-21T04:28:23.130Z,18.02
2022-08-21T04:30:53.243Z,17.72
2022-08-21T04:33:21.296Z,17.67
2022-08-21T04:35:49.908Z,17.81
2022-08-21T04:38:17.991Z,17.83
2022-08-21T04:40:49.646Z,17.85
2022-08-21T04:43:17.586Z,18.03
2022-08-21T04:45:48.581Z,18.00
2022-08-21T04:48:18.932Z,17.90
2022-08-21T04:50:50.914Z,18.11
2022-08-21T04:53:28.572Z,18.19
2022-08-21T04:56:03.159Z,18.28
2022-08-21T04:58:33.463Z,18.53
2022-08-21T05:01:03.563Z,18.71
2022-08-21T05:03:32.756Z,18.99
2022-08-21T05:06:01.013Z,18.56
2022-08-21T05:08:29.816Z,18.66
2022-08-21T05:11:00.601Z,18.66
2022-08-21T05:13:29.048Z,18.66
2022-08-21T05:15:57.132Z,18.77
2022-08-21T05:18:25.320Z,18.64
2022-08-21T05:20:53.435Z,18.66
2022-08-21T05:23:21.394Z,18.13
2022-08-21T05:25:49.293Z,18.16
2022-08-21T05:28:18.934Z,18.36
2022-08-21T05:30:48.393Z,18.45
2022-08-21T05:33:16.137Z,18.60
2022-08-21T05:35:44.394Z,18.74
2022-08-21T05:38:16.693Z,18.42
2022-08-21T05:40:46.497Z,18.42
2022-08-21T05:43:14.393Z,18.17
2022-08-21T05:45:44.769Z,18.19
2022-08-21T05:48:14.666Z,18.17
2022-08-21T05:50:43.053Z,18.00
2022-08-21T05:53:11.638Z,17.99
2022-08-21T05:55:44.444Z,17.95
2022-08-21T05:58:14.055Z,17.96
2022-08-21T06:00:43.670Z,18.29
2022-08-21T06:03:16.240Z,18.18
2022-08-21T06:05:43.987Z,18.59
2022-08-21T06:08:11.788Z,18.66
2022-08-21T06:10:40.400Z,18.45
2022-08-21T06:13:08.501Z,18.55
2022-08-21T06:15:36.589Z,18.68
2022-08-21T06:18:06.481Z,18.59
2022-08-21T06:20:34.317Z,18.94
2022-08-21T06:23:02.513Z,19.20
2022-08-21T06:25:31.252Z,19.44
2022-08-21T06:28:04.108Z,19.79
2022-08-21T06:30:32.518Z,19.37
2022-08-21T06:33:00.524Z,19.93
2022-08-21T06:35:30.815Z,19.73
2022-08-21T06:37:58.989Z,19.67
2022-08-21T06:40:27.363Z,19.70
2022-08-21T06:42:58.384Z,19.70
2022-08-21T06:45:28.306Z,19.43
2022-08-21T06:48:00.397Z,19.38
2022-08-21T06:50:30.325Z,19.79
2022-08-21T06:53:03.405Z,19.89
2022-08-21T06:55:32.000Z,19.71
2022-08-21T06:58:00.435Z,19.67
2022-08-21T07:00:28.650Z,19.47
2022-08-21T07:02:56.970Z,19.74
2022-08-21T07:05:29.643Z,19.49
2022-08-21T07:07:57.949Z,19.95
2022-08-21T07:10:26.484Z,20.05
2022-08-21T07:13:00.384Z,20.13
2022-08-21T07:15:30.345Z,21.12
2022-08-21T07:17:59.041Z,21.33
2022-08-21T07:20:27.342Z,21.98
2022-08-21T07:22:57.417Z,22.47
2022-08-21T07:25:25.278Z,23.44
2022-08-21T07:27:53.463Z,24.48
2022-08-21T07:30:21.480Z,25.13
2022-08-21T07:32:50.507Z,24.88
2022-08-21T07:35:18.816Z,25.57
2022-08-21T07:37:48.586Z,26.88
2022-08-21T07:40:19.527Z,26.48
2022-08-21T07:42:51.000Z,26.90
2022-08-21T07:45:21.522Z,28.36
2022-08-21T07:47:53.093Z,30.68
2022-08-21T07:50:23.348Z,33.62
2022-08-21T07:52:51.190Z,34.02
2022-08-21T07:55:22.867Z,34.31
2022-08-21T07:57:50.827Z,35.67
2022-08-21T08:00:21.896Z,35.04
2022-08-21T08:02:51.630Z,35.14
2022-08-21T08:05:22.394Z,34.83
2022-08-21T08:07:50.160Z,33.67
2022-08-21T08:10:22.826Z,34.31
2022-08-21T08:12:52.238Z,32.18
2022-08-21T08:15:26.479Z,31.83
2022-08-21T08:17:55.779Z,32.52
2022-08-21T08:20:24.615Z,30.63
2022-08-21T08:22:52.995Z,30.58
2022-08-21T08:25:24.154Z,31.10
2022-08-21T08:27:52.024Z,29.71
2022-08-21T08:30:22.516Z,29.60
2022-08-21T08:32:50.884Z,29.08
2022-08-21T08:35:18.974Z,30.02
2022-08-21T08:37:51.446Z,30.22
2022-08-21T08:40:33.409Z,32.80
2022-08-21T08:43:01.851Z,34.64
2022-08-21T08:45:34.068Z,36.52
2022-08-21T08:48:13.977Z,38.09
2022-08-21T08:50:47.443Z,39.23
2022-08-21T08:53:21.281Z,39.45
2022-08-21T08:55:53.710Z,40.99
2022-08-21T08:58:25.848Z,39.20
2022-08-21T09:00:56.382Z,36.74
2022-08-21T09:03:25.746Z,36.67
2022-08-21T09:06:04.161Z,31.98
2022-08-21T09:08:50.202Z,32.76
2022-08-21T09:11:30.985Z,33.09
2022-08-21T09:14:11.599Z,32.81
2022-08-21T09:16:49.550Z,34.04
2022-08-21T09:19:35.430Z,35.89
2022-08-21T09:22:09.800Z,38.11
2022-08-21T09:24:52.021Z,40.18
2022-08-21T09:27:23.376Z,41.23
2022-08-21T09:29:55.159Z,40.75
2022-08-21T09:32:36.853Z,38.83
2022-08-21T09:35:10.080Z,38.42
2022-08-21T09:37:50.497Z,39.48
2022-08-21T09:40:27.409Z,40.27
2022-08-21T09:43:02.733Z,35.26
2022-08-21T09:45:33.945Z,35.46
2022-08-21T09:48:13.287Z,36.89
2022-08-21T09:50:42.139Z,35.94
2022-08-21T09:53:19.448Z,35.77
2022-08-21T09:56:11.817Z,36.63
2022-08-21T09:58:45.827Z,37.56
2022-08-21T10:01:18.620Z,38.15
2022-08-21T10:03:50.826Z,41.21
2022-08-21T10:06:28.777Z,40.57
2022-08-21T10:09:08.077Z,40.39
2022-08-21T10:11:36.651Z,41.38
2022-08-21T10:14:15.781Z,40.22
2022-08-21T10:16:54.858Z,38.10
2022-08-21T10:19:30.080Z,35.82
2022-08-21T10:22:04.402Z,37.00
2022-08-21T10:24:40.154Z,39.77
2022-08-21T10:27:17.784Z,40.33
2022-08-21T10:29:54.355Z,39.24
2022-08-21T10:32:33.566Z,38.91
2022-08-21T10:35:09.601Z,40.28
2022-08-21T10:37:48.120Z,41.89
2022-08-21T10:40:26.475Z,39.13
2022-08-21T10:43:06.073Z,40.30
2022-08-21T10:45:48.488Z,41.15
2022-08-21T10:48:23.625Z,40.64
2022-08-21T10:50:54.987Z,40.16
2022-08-21T10:53:43.587Z,38.32
2022-08-21T10:56:18.752Z,38.23
2022-08-21T10:58:56.352Z,37.34
2022-08-21T11:01:29.553Z,37.21
2022-08-21T11:04:14.264Z,40.29
2022-08-21T11:06:49.055Z,39.57
2022-08-21T11:09:20.679Z,39.06
2022-08-21T11:11:59.396Z,38.49
2022-08-21T11:14:50.239Z,35.58
2022-08-21T11:17:25.448Z,36.10
2022-08-21T11:19:59.164Z,36.10
2022-08-21T11:22:40.632Z,37.32
2022-08-21T11:25:15.852Z,35.91
2022-08-21T11:27:48.617Z,35.89
2022-08-21T11:30:17.145Z,34.39
2022-08-21T11:33:07.801Z,35.31
2022-08-21T11:35:41.429Z,32.38
2022-08-21T11:38:39.143Z,33.47
2022-08-21T11:41:30.177Z,33.41
2022-08-21T11:44:05.960Z,34.09
2022-08-21T11:46:40.815Z,34.72
2022-08-21T11:49:32.566Z,34.80
2022-08-21T11:52:09.785Z,33.47
2022-08-21T11:54:44.327Z,33.02
2022-08-21T11:57:18.985Z,32.79
2022-08-21T11:59:51.720Z,32.25
2022-08-21T12:02:23.055Z,31.42
2022-08-21T12:04:57.513Z,31.53
2022-08-21T12:07:36.735Z,32.05
2022-08-21T12:10:07.716Z,32.25
2022-08-21T12:12:37.468Z,32.02
2022-08-21T12:15:25.658Z,31.48
2022-08-21T12:17:57.740Z,31.66
2022-08-21T12:20:37.603Z,32.35
2022-08-21T12:23:20.060Z,31.86
2022-08-21T12:26:01.441Z,31.98
2022-08-21T12:28:31.221Z,31.74
2022-08-21T12:30:59.255Z,31.89
2022-08-21T12:33:30.872Z,31.10
2022-08-21T12:36:09.588Z,31.45
2022-08-21T12:38:52.624Z,31.84
2022-08-21T12:41:23.521Z,31.58
2022-08-21T12:43:58.917Z,30.94
2022-08-21T12:46:34.476Z,30.61
2022-08-21T12:49:09.448Z,30.67
2022-08-21T12:51:50.833Z,31.47
2022-08-21T12:54:27.158Z,31.37
2022-08-21T12:56:59.913Z,31.06
2022-08-21T12:59:28.558Z,31.31
2022-08-21T13:01:57.638Z,30.72
2022-08-21T13:04:35.152Z,31.81
2022-08-21T13:07:09.053Z,32.25
2022-08-21T13:09:37.387Z,32.05
2022-08-21T13:12:10.480Z,32.31
2022-08-21T13:14:45.133Z,31.98
2022-08-21T13:17:23.319Z,31.54
2022-08-21T13:20:01.525Z,31.32
2022-08-21T13:22:33.965Z,31.43
2022-08-21T13:25:06.659Z,31.41
2022-08-21T13:27:34.964Z,30.94
2022-08-21T13:30:07.938Z,30.01
2022-08-21T13:32:39.128Z,30.34
2022-08-21T13:35:13.597Z,30.65
2022-08-21T13:37:44.300Z,29.75
2022-08-21T13:40:15.994Z,29.01
2022-08-21T13:42:46.235Z,29.92
2022-08-21T13:45:21.431Z,30.59
2022-08-21T13:47:49.968Z,30.59
2022-08-21T13:50:20.315Z,29.96
2022-08-21T13:53:02.713Z,30.73
2022-08-21T13:55:40.157Z,30.77
2022-08-21T13:58:08.091Z,29.48
2022-08-21T14:00:39.071Z,29.86
2022-08-21T14:03:10.347Z,30.61
2022-08-21T14:05:40.720Z,30.26
2022-08-21T14:08:14.742Z,30.30
2022-08-21T14:10:45.751Z,30.50
2022-08-21T14:13:31.758Z,31.25
2022-08-21T14:16:02.744Z,30.95
2022-08-21T14:18:31.029Z,30.55
2022-08-21T14:21:11.020Z,30.48
2022-08-21T14:23:40.270Z,30.49
2022-08-21T14:26:08.983Z,30.79
2022-08-21T14:28:41.508Z,29.02
2022-08-21T14:31:18.176Z,28.19
2022-08-21T14:33:47.371Z,28.59
2022-08-21T14:36:15.111Z,29.02
2022-08-21T14:38:44.892Z,29.41
2022-08-21T14:41:18.084Z,29.30
2022-08-21T14:43:47.356Z,28.53
2022-08-21T14:46:22.422Z,28.86
2022-08-21T14:48:50.133Z,28.32
2022-08-21T14:51:17.919Z,28.45
2022-08-21T14:53:48.260Z,28.58
2022-08-21T14:56:16.938Z,28.06
2022-08-21T14:58:47.550Z,28.76
2022-08-21T15:01:17.004Z,29.01
2022-08-21T15:03:45.093Z,28.86
2022-08-21T15:06:12.817Z,28.84
2022-08-21T15:08:41.290Z,29.47
2022-08-21T15:11:41.831Z,29.44
2022-08-21T15:14:12.589Z,29.47
2022-08-21T15:16:40.344Z,29.36
2022-08-21T15:19:08.385Z,29.59
2022-08-21T15:21:36.089Z,29.19
2022-08-21T15:24:04.335Z,29.14
2022-08-21T15:26:33.812Z,28.88
2022-08-21T15:29:02.132Z,28.87
2022-08-21T15:31:34.813Z,29.04
2022-08-21T15:34:03.094Z,29.14
2022-08-21T15:36:30.821Z,29.20
2022-08-21T15:38:58.880Z,28.82
2022-08-21T15:41:26.796Z,28.08
2022-08-21T15:43:56.629Z,28.11
2022-08-21T15:46:24.384Z,27.93
2022-08-21T15:48:55.405Z,28.10
2022-08-21T15:51:26.971Z,27.91
2022-08-21T15:53:54.971Z,28.04
2022-08-21T15:56:24.848Z,28.05
2022-08-21T15:58:54.784Z,27.25
2022-08-21T16:01:23.955Z,27.14
2022-08-21T16:03:54.972Z,27.30
2022-08-21T16:06:37.976Z,27.24
2022-08-21T16:09:10.712Z,26.89
2022-08-21T16:11:38.478Z,26.74
2022-08-21T16:14:06.670Z,26.73
2022-08-21T16:16:37.446Z,26.61
2022-08-21T16:19:07.286Z,26.55
2022-08-21T16:21:35.245Z,26.58
2022-08-21T16:24:03.443Z,26.75
2022-08-21T16:26:31.719Z,26.67
2022-08-21T16:29:04.364Z,26.83
2022-08-21T16:31:32.881Z,26.82
2022-08-21T16:34:02.879Z,26.99
2022-08-21T16:36:30.705Z,27.01
2022-08-21T16:38:59.795Z,26.94
2022-08-21T16:41:32.576Z,26.92
2022-08-21T16:44:01.297Z,26.91
2022-08-21T16:46:30.638Z,26.94
2022-08-21T16:48:58.373Z,26.94
2022-08-21T16:51:27.468Z,26.96
2022-08-21T16:53:55.604Z,26.58
2022-08-21T16:56:23.357Z,26.65
2022-08-21T16:58:52.465Z,26.69
2022-08-21T17:01:24.734Z,26.65
2022-08-21T17:03:53.757Z,26.86
2022-08-21T17:06:28.037Z,26.59
2022-08-21T17:08:59.072Z,26.85
2022-08-21T17:11:37.205Z,26.63
2022-08-21T17:14:10.217Z,26.76
2022-08-21T17:16:38.252Z,26.84
2022-08-21T17:19:07.860Z,27.12
2022-08-21T17:21:35.837Z,26.52
2022-08-21T17:24:05.855Z,26.45
2022-08-21T17:26:34.081Z,25.96
2022-08-21T17:29:02.284Z,25.66
2022-08-21T17:31:31.525Z,25.65
2022-08-21T17:34:00.108Z,25.62
2022-08-21T17:36:30.079Z,25.49
2022-08-21T17:38:59.162Z,25.51
2022-08-21T17:41:28.497Z,25.44
2022-08-21T17:43:56.890Z,25.50
2022-08-21T17:46:28.101Z,25.53
2022-08-21T17:48:57.166Z,25.35
2022-08-21T17:51:25.297Z,25.18
2022-08-21T17:53:53.037Z,25.21
2022-08-21T17:56:20.930Z,25.11
2022-08-21T17:58:52.594Z,24.87
2022-08-21T18:01:21.296Z,24.83
2022-08-21T18:03:50.025Z,24.59
2022-08-21T18:06:18.418Z,24.54
2022-08-21T18:08:46.726Z,24.34
2022-08-21T18:11:23.592Z,24.41
2022-08-21T18:13:55.285Z,24.27
2022-08-21T18:16:23.848Z,24.10
2022-08-21T18:18:53.091Z,23.98
2022-08-21T18:21:20.934Z,23.78
2022-08-21T18:23:49.780Z,23.75
2022-08-21T18:26:26.227Z,23.65
2022-08-21T18:28:58.747Z,23.52
2022-08-21T18:31:27.118Z,23.52
2022-08-21T18:33:57.898Z,23.49
2022-08-21T18:36:27.423Z,23.37
2022-08-21T18:39:04.401Z,23.18
2022-08-21T18:41:42.247Z,23.14
2022-08-21T18:44:12.121Z,23.08
2022-08-21T18:46:39.994Z,23.14
2022-08-21T18:49:08.105Z,23.01
2022-08-21T18:51:35.855Z,22.95
2022-08-21T18:54:03.597Z,22.92
2022-08-21T18:56:37.588Z,22.71
2022-08-21T18:59:06.545Z,22.70
2022-08-21T19:01:35.612Z,22.61
2022-08-21T19:04:04.161Z,22.58
2022-08-21T19:06:32.990Z,22.54
2022-08-21T19:09:02.320Z,22.44
2022-08-21T19:11:30.267Z,22.36
2022-08-21T19:13:59.998Z,22.36
2022-08-21T19:16:29.778Z,22.19
2022-08-21T19:19:02.352Z,22.09
2022-08-21T19:21:30.316Z,21.97
2022-08-21T19:23:58.749Z,21.94
2022-08-21T19:26:29.155Z,21.92
2022-08-21T19:29:02.313Z,21.87
2022-08-21T19:31:33.999Z,21.74
2022-08-21T19:34:07.230Z,21.92
2022-08-21T19:36:35.997Z,21.41
2022-08-21T19:39:08.172Z,21.42
2022-08-21T19:41:39.051Z,21.18
2022-08-21T19:44:11.126Z,21.10
2022-08-21T19:46:45.337Z,20.99
2022-08-21T19:49:17.599Z,20.85
2022-08-21T19:51:47.789Z,20.89
2022-08-21T19:54:20.845Z,20.59
2022-08-21T19:56:50.019Z,20.56
2022-08-21T19:59:24.833Z,20.42
2022-08-21T20:01:52.989Z,20.32
2022-08-21T20:04:22.388Z,20.08
2022-08-21T20:06:50.301Z,20.01
2022-08-21T20:09:18.862Z,20.05
2022-08-21T20:11:50.692Z,20.02
2022-08-21T20:14:21.589Z,19.90
2022-08-21T20:16:52.410Z,19.98
2022-08-21T20:19:22.376Z,19.82
2022-08-21T20:21:50.267Z,19.77
2022-08-21T20:24:17.983Z,19.67
2022-08-21T20:26:49.202Z,19.58
2022-08-21T20:29:24.546Z,19.58
2022-08-21T20:31:59.871Z,19.58
2022-08-21T20:34:28.995Z,19.54
2022-08-21T20:36:56.751Z,19.46
2022-08-21T20:39:25.351Z,19.34
2022-08-21T20:41:54.643Z,19.20
2022-08-21T20:44:23.780Z,19.04
2022-08-21T20:46:55.352Z,18.89
2022-08-21T20:49:31.030Z,18.93
2022-08-21T20:52:00.087Z,18.79
2022-08-21T20:54:32.961Z,18.67
2022-08-21T20:59:59.316Z,18.63
2022-08-21T21:02:38.840Z,18.58
2022-08-21T21:05:14.716Z,18.53
2022-08-21T21:07:55.464Z,18.61
2022-08-21T21:10:30.870Z,18.49
2022-08-21T21:13:05.297Z,18.50
2022-08-21T21:15:36.775Z,18.45
2022-08-21T21:18:14.081Z,18.30
2022-08-21T21:20:49.581Z,18.28
2022-08-21T21:23:24.530Z,18.28
2022-08-21T21:26:00.279Z,18.21
2022-08-21T21:28:44.730Z,18.17
2022-08-21T21:31:12.853Z,18.08
2022-08-21T21:33:41.446Z,17.94
2022-08-21T21:36:20.328Z,17.87
2022-08-21T21:38:54.690Z,17.74
2022-08-21T21:41:32.074Z,17.67
2022-08-21T21:44:16.952Z,17.70
2022-08-21T21:47:03.362Z,17.71
2022-08-21T21:52:57.937Z,17.59
2022-08-21T21:55:41.881Z,17.55
2022-08-21T21:58:35.842Z,17.51
2022-08-21T22:01:12.747Z,17.67
2022-08-21T22:03:49.804Z,17.71
2022-08-21T22:06:28.567Z,17.71
2022-08-21T22:09:09.382Z,17.71
2022-08-21T22:14:41.242Z,17.56
2022-08-21T22:17:24.093Z,17.49
2022-08-21T22:19:55.726Z,17.36
2022-08-21T22:22:27.280Z,17.38
2022-08-21T22:25:16.603Z,17.41
2022-08-21T22:27:48.120Z,17.54
2022-08-21T22:30:37.627Z,17.51
2022-08-21T22:33:12.635Z,17.53
2022-08-21T22:35:41.244Z,17.44
2022-08-21T22:38:19.552Z,17.36
2022-08-21T22:40:51.924Z,17.29
2022-08-21T22:43:24.114Z,17.16
2022-08-21T22:48:54.841Z,16.99
2022-08-21T22:51:32.520Z,16.97
2022-08-21T22:54:01.121Z,17.02
2022-08-21T22:56:33.805Z,17.04
2022-08-21T22:59:05.175Z,16.97
2022-08-21T23:01:43.491Z,16.92
2022-08-21T23:04:17.040Z,16.85
2022-08-21T23:06:49.153Z,16.84
2022-08-21T23:09:30.857Z,16.80
2022-08-21T23:12:14.134Z,16.87
2022-08-21T23:17:50.150Z,16.82
2022-08-21T23:20:24.798Z,16.81
2022-08-21T23:23:03.511Z,16.84
2022-08-21T23:25:59.257Z,16.75
2022-08-21T23:28:44.601Z,16.63
2022-08-21T23:34:21.191Z,16.55
2022-08-21T23:37:26.012Z,16.59
2022-08-21T23:40:36.469Z,16.44
2022-08-21T23:43:18.796Z,16.40
2022-08-21T23:46:07.298Z,16.40
2022-08-21T23:48:47.428Z,16.26
2022-08-21T23:51:18.304Z,16.14
2022-08-21T23:54:02.156Z,16.13
2022-08-21T23:56:47.617Z,16.02
2022-08-21T23:59:22.728Z,15.96
